タシュケント の空港の天気 - METARとTAF

タシケント空港 ( UTTT / TAS ) - ウズベキスタン タシュケント
飛行場実況気象(Metar)
観測時間11/27 12:30 UZT (11/27 07:30 UTC)
風向・風速南南西 2m/s
視程3000m
天気現象もや
なし
気温10℃
湿度71%
気圧1020hPa
METARUTTT 270730Z 20004KT 160V240 3000 BR NSC 10/05 Q1020 R08L/CLRD70 NOSIG
過去の天気等 Google飛行場航空写真 Wunderground天気予報

過去48時間のMETAR

飛行場予報(TAF)
発表時間: 11/27 10:00 UZT (11/27 05:00 UTC)
予報対象時間: 27日11時 UZT ~ 28日11時 UZT
風向・風速南南西 4m/s
視程4000m
天気現象もや
全天の8割程度の雲 雲底高度 210m
27日11時 UZT ~ 27日13時 UZT に一時的に
視程2000m
天気現象もや
27日17時 UZT ~ 28日5時 UZT に一時的に
視程1200m
天気現象もや
TAF UTTT 270500Z 2706/2806 20008KT 4000 BR BKN007
TEMPO 2706/2708 2000 BR
TEMPO 2712/2724 1200 BR